createdAt,value
2023-04-03T05:02:09.679Z,7.40
2023-04-03T05:07:14.805Z,7.40
2023-04-03T05:12:19.189Z,7.50
2023-04-03T05:17:25.295Z,7.40
2023-04-03T05:22:30.524Z,7.40
2023-04-03T05:27:35.715Z,7.50
2023-04-03T05:32:41.113Z,7.50
2023-04-03T05:37:45.685Z,7.50
2023-04-03T05:47:56.969Z,7.50
2023-04-03T05:53:02.216Z,7.50
2023-04-03T06:03:14.300Z,7.50
2023-04-03T06:13:23.150Z,7.50
2023-04-03T06:18:29.628Z,7.50
2023-04-03T06:33:43.449Z,7.80
2023-04-03T06:48:56.758Z,8.10
2023-04-03T06:54:00.885Z,8.10
2023-04-03T07:04:10.475Z,8.20
2023-04-03T09:23:47.820Z,9.80
2023-04-03T09:34:01.944Z,10.20
2023-04-03T09:39:09.013Z,10.30
2023-04-03T09:44:24.616Z,10.30
2023-04-03T09:54:41.069Z,10.30
2023-04-03T09:59:59.043Z,10.30
2023-04-03T10:10:23.769Z,10.50
2023-04-03T10:15:32.208Z,10.50
2023-04-03T10:20:39.580Z,10.50
2023-04-03T10:25:52.453Z,10.60
2023-04-03T10:31:07.596Z,11.60
2023-04-03T10:36:20.258Z,10.80
2023-04-03T10:41:34.200Z,10.70
2023-04-03T10:46:41.195Z,10.20
2023-04-03T10:51:47.314Z,10.90
2023-04-03T10:57:08.406Z,11.00
2023-04-03T11:02:21.639Z,11.10
2023-04-03T11:07:28.929Z,11.00
2023-04-03T11:12:43.012Z,11.20
2023-04-03T11:17:52.263Z,11.40
2023-04-03T11:23:02.794Z,11.50
2023-04-03T11:28:14.071Z,11.80
2023-04-03T11:33:29.845Z,12.30
2023-04-03T11:38:40.492Z,12.80
2023-04-03T11:43:59.198Z,13.10
2023-04-03T11:54:44.401Z,15.20
2023-04-03T11:59:50.681Z,16.10
2023-04-03T12:05:29.045Z,16.00
2023-04-03T12:10:33.028Z,16.80
2023-04-03T12:15:55.033Z,17.10
2023-04-03T12:21:00.567Z,17.30
2023-04-03T12:26:07.819Z,17.70
2023-04-03T12:31:13.723Z,18.40
2023-04-03T12:36:28.029Z,19.20
2023-04-03T12:41:39.761Z,19.90
2023-04-03T12:46:49.450Z,20.20
2023-04-03T12:51:54.682Z,20.30
2023-04-03T12:57:12.213Z,20.90
2023-04-03T13:02:29.214Z,21.30
2023-04-03T13:07:35.701Z,21.90
2023-04-03T13:12:49.064Z,22.20
2023-04-03T13:17:55.569Z,22.70
2023-04-03T13:23:03.742Z,22.80
2023-04-03T13:28:14.052Z,22.50
2023-04-03T13:33:26.188Z,22.60
2023-04-03T13:38:34.084Z,22.90
2023-04-03T13:43:41.329Z,22.80
2023-04-03T13:48:49.263Z,22.60
2023-04-03T13:53:56.092Z,23.00
2023-04-03T13:59:06.045Z,23.30
2023-04-03T14:04:19.476Z,23.20
2023-04-03T14:09:25.062Z,23.10
2023-04-03T14:14:31.691Z,23.20
2023-04-03T14:19:37.673Z,23.30
2023-04-03T14:24:41.408Z,23.20
2023-04-03T14:29:45.044Z,23.10
2023-04-03T14:34:52.129Z,23.20
2023-04-03T14:39:58.312Z,23.10
2023-04-03T14:45:02.869Z,23.20
2023-04-03T14:50:10.483Z,22.60
2023-04-03T14:55:16.725Z,22.50
2023-04-03T15:00:22.515Z,22.40
2023-04-03T15:05:27.595Z,21.90
2023-04-03T15:10:33.970Z,21.50
2023-04-03T15:15:39.252Z,21.20
2023-04-03T15:20:44.717Z,20.70
2023-04-03T15:25:51.198Z,20.00
2023-04-03T15:30:55.034Z,19.80
2023-04-03T15:36:11.863Z,19.30
2023-04-03T15:41:21.098Z,18.80
2023-04-03T15:51:30.210Z,18.10
2023-04-03T15:56:33.855Z,18.00
2023-04-03T16:01:40.069Z,17.60
2023-04-03T16:06:45.359Z,17.30
2023-04-03T16:11:48.950Z,17.30
2023-04-03T16:21:58.417Z,16.50
2023-04-03T16:27:02.074Z,16.50
2023-04-03T16:37:11.528Z,16.10
2023-04-03T16:42:15.298Z,16.00
2023-04-03T16:47:20.256Z,16.00
2023-04-03T16:52:25.217Z,15.90
2023-04-03T17:07:38.299Z,15.40
2023-04-03T17:22:51.119Z,15.20
2023-04-03T17:38:04.807Z,14.90
2023-04-03T17:53:18.118Z,14.80
2023-04-03T18:08:31.106Z,14.20
2023-04-03T18:23:50.265Z,14.00
2023-04-03T18:28:58.322Z,13.90
2023-04-03T18:39:07.374Z,13.70
2023-04-03T18:44:16.170Z,13.60
2023-04-03T18:54:25.470Z,13.40
2023-04-03T19:09:39.819Z,13.00
2023-04-03T19:24:52.625Z,12.60
2023-04-03T19:35:00.162Z,12.50
2023-04-03T19:40:06.305Z,12.30
2023-04-03T19:45:12.042Z,12.20
2023-04-03T19:55:21.078Z,11.90
2023-04-03T20:05:28.913Z,11.80
2023-04-03T20:10:35.184Z,11.70
2023-04-03T20:15:41.304Z,11.60
2023-04-03T20:26:05.981Z,11.50
2023-04-03T20:36:17.350Z,11.40
2023-04-03T20:41:22.644Z,11.30
2023-04-03T20:51:52.690Z,11.20
2023-04-03T20:56:57.695Z,11.20
2023-04-03T21:07:43.402Z,11.10
2023-04-03T21:13:25.489Z,11.10
2023-04-03T21:18:51.965Z,10.70
2023-04-03T21:23:56.549Z,10.90
2023-04-03T21:29:00.399Z,10.80
2023-04-03T21:34:05.700Z,10.80
2023-04-03T21:39:09.445Z,10.70
2023-04-03T21:44:13.012Z,10.70
2023-04-03T21:49:18.138Z,10.60
2023-04-03T21:54:22.330Z,10.50
2023-04-03T21:59:26.095Z,10.50
2023-04-03T22:04:31.193Z,10.50
2023-04-03T22:09:34.707Z,10.40
2023-04-03T22:14:38.878Z,10.30
2023-04-03T22:19:43.801Z,10.10
2023-04-03T22:24:47.321Z,9.90
2023-04-03T22:29:50.903Z,9.70
